sensor_id;sensor_type;location;lat;lon;timestamp;P1;durP1;ratioP1;P2;durP2;ratioP2
1414;SDS011;702;49.466;11.086;2024-03-22T00:01:49;26.03;;;19.70;;
1414;SDS011;702;49.466;11.086;2024-03-22T00:04:16;27.90;;;21.00;;
1414;SDS011;702;49.466;11.086;2024-03-22T00:06:44;26.57;;;19.93;;
1414;SDS011;702;49.466;11.086;2024-03-22T00:09:16;24.17;;;19.67;;
1414;SDS011;702;49.466;11.086;2024-03-22T00:11:42;25.33;;;20.57;;
1414;SDS011;702;49.466;11.086;2024-03-22T00:14:11;22.23;;;19.83;;
1414;SDS011;702;49.466;11.086;2024-03-22T00:16:37;26.93;;;20.43;;
1414;SDS011;702;49.466;11.086;2024-03-22T00:19:05;24.67;;;20.07;;
1414;SDS011;702;49.466;11.086;2024-03-22T00:21:31;26.40;;;19.60;;
1414;SDS011;702;49.466;11.086;2024-03-22T00:23:58;24.43;;;18.90;;
1414;SDS011;702;49.466;11.086;2024-03-22T00:26:28;31.03;;;19.80;;
1414;SDS011;702;49.466;11.086;2024-03-22T00:28:55;26.43;;;20.10;;
1414;SDS011;702;49.466;11.086;2024-03-22T00:31:23;26.60;;;19.73;;
1414;SDS011;702;49.466;11.086;2024-03-22T00:33:50;24.60;;;19.47;;
1414;SDS011;702;49.466;11.086;2024-03-22T00:36:16;30.13;;;21.53;;
1414;SDS011;702;49.466;11.086;2024-03-22T00:38:44;28.37;;;21.27;;
1414;SDS011;702;49.466;11.086;2024-03-22T00:41:10;30.33;;;20.60;;
1414;SDS011;702;49.466;11.086;2024-03-22T00:43:38;31.50;;;21.63;;
1414;SDS011;702;49.466;11.086;2024-03-22T00:46:05;33.23;;;23.57;;
1414;SDS011;702;49.466;11.086;2024-03-22T00:48:32;30.37;;;22.63;;
1414;SDS011;702;49.466;11.086;2024-03-22T00:51:00;28.33;;;21.60;;
1414;SDS011;702;49.466;11.086;2024-03-22T00:53:28;29.37;;;22.57;;
1414;SDS011;702;49.466;11.086;2024-03-22T00:55:54;31.47;;;21.27;;
1414;SDS011;702;49.466;11.086;2024-03-22T00:58:25;31.17;;;21.37;;
1414;SDS011;702;49.466;11.086;2024-03-22T01:00:54;30.03;;;22.03;;
1414;SDS011;702;49.466;11.086;2024-03-22T01:03:21;26.93;;;19.97;;
1414;SDS011;702;49.466;11.086;2024-03-22T01:05:49;31.73;;;19.50;;
1414;SDS011;702;49.466;11.086;2024-03-22T01:08:16;30.30;;;21.03;;
1414;SDS011;702;49.466;11.086;2024-03-22T01:10:42;34.87;;;20.13;;
1414;SDS011;702;49.466;11.086;2024-03-22T01:13:10;30.53;;;21.10;;
1414;SDS011;702;49.466;11.086;2024-03-22T01:15:36;30.50;;;19.33;;
1414;SDS011;702;49.466;11.086;2024-03-22T01:18:05;30.47;;;21.57;;
1414;SDS011;702;49.466;11.086;2024-03-22T01:20:31;34.07;;;21.00;;
1414;SDS011;702;49.466;11.086;2024-03-22T01:22:59;29.37;;;21.47;;
1414;SDS011;702;49.466;11.086;2024-03-22T01:25:25;31.27;;;21.10;;
1414;SDS011;702;49.466;11.086;2024-03-22T01:27:53;25.90;;;19.13;;
1414;SDS011;702;49.466;11.086;2024-03-22T01:30:21;29.03;;;19.70;;
1414;SDS011;702;49.466;11.086;2024-03-22T01:32:48;29.93;;;20.17;;
1414;SDS011;702;49.466;11.086;2024-03-22T01:35:15;29.87;;;19.30;;
1414;SDS011;702;49.466;11.086;2024-03-22T01:37:43;31.30;;;20.53;;
1414;SDS011;702;49.466;11.086;2024-03-22T01:40:12;26.73;;;18.67;;
1414;SDS011;702;49.466;11.086;2024-03-22T01:42:40;29.37;;;20.10;;
1414;SDS011;702;49.466;11.086;2024-03-22T01:45:07;30.27;;;20.70;;
1414;SDS011;702;49.466;11.086;2024-03-22T01:47:36;26.70;;;18.73;;
1414;SDS011;702;49.466;11.086;2024-03-22T01:50:03;24.23;;;19.03;;
1414;SDS011;702;49.466;11.086;2024-03-22T01:52:33;25.40;;;18.20;;
1414;SDS011;702;49.466;11.086;2024-03-22T01:55:00;29.00;;;21.00;;
1414;SDS011;702;49.466;11.086;2024-03-22T01:57:30;27.80;;;20.03;;
1414;SDS011;702;49.466;11.086;2024-03-22T01:59:57;24.07;;;17.93;;
1414;SDS011;702;49.466;11.086;2024-03-22T02:02:26;31.13;;;19.50;;
1414;SDS011;702;49.466;11.086;2024-03-22T02:04:52;27.90;;;20.00;;
1414;SDS011;702;49.466;11.086;2024-03-22T02:07:19;31.40;;;20.33;;
1414;SDS011;702;49.466;11.086;2024-03-22T02:09:47;28.13;;;18.33;;
1414;SDS011;702;49.466;11.086;2024-03-22T02:12:14;32.53;;;21.00;;
1414;SDS011;702;49.466;11.086;2024-03-22T02:14:42;34.20;;;20.87;;
1414;SDS011;702;49.466;11.086;2024-03-22T02:17:09;30.60;;;21.27;;
1414;SDS011;702;49.466;11.086;2024-03-22T02:19:36;28.73;;;19.43;;
1414;SDS011;702;49.466;11.086;2024-03-22T02:22:02;32.93;;;21.07;;
1414;SDS011;702;49.466;11.086;2024-03-22T02:24:31;29.47;;;18.90;;
1414;SDS011;702;49.466;11.086;2024-03-22T02:26:58;28.03;;;19.70;;
1414;SDS011;702;49.466;11.086;2024-03-22T02:29:25;30.20;;;19.20;;
1414;SDS011;702;49.466;11.086;2024-03-22T02:31:51;32.53;;;19.77;;
1414;SDS011;702;49.466;11.086;2024-03-22T02:34:19;23.93;;;18.20;;
1414;SDS011;702;49.466;11.086;2024-03-22T02:36:45;29.60;;;18.27;;
1414;SDS011;702;49.466;11.086;2024-03-22T02:39:13;26.60;;;18.30;;
1414;SDS011;702;49.466;11.086;2024-03-22T02:41:40;25.07;;;18.63;;
1414;SDS011;702;49.466;11.086;2024-03-22T02:44:08;28.37;;;19.20;;
1414;SDS011;702;49.466;11.086;2024-03-22T02:46:34;24.70;;;17.90;;
1414;SDS011;702;49.466;11.086;2024-03-22T02:49:01;31.07;;;18.80;;
1414;SDS011;702;49.466;11.086;2024-03-22T02:51:28;24.40;;;17.90;;
1414;SDS011;702;49.466;11.086;2024-03-22T02:53:55;30.13;;;19.60;;
1414;SDS011;702;49.466;11.086;2024-03-22T02:56:22;28.00;;;18.70;;
1414;SDS011;702;49.466;11.086;2024-03-22T02:58:51;32.47;;;20.60;;
1414;SDS011;702;49.466;11.086;2024-03-22T03:01:17;28.30;;;19.40;;
1414;SDS011;702;49.466;11.086;2024-03-22T03:03:44;27.63;;;18.33;;
1414;SDS011;702;49.466;11.086;2024-03-22T03:06:10;32.67;;;19.83;;
1414;SDS011;702;49.466;11.086;2024-03-22T03:08:38;29.67;;;19.83;;
1414;SDS011;702;49.466;11.086;2024-03-22T03:11:04;30.40;;;20.37;;
1414;SDS011;702;49.466;11.086;2024-03-22T03:13:31;31.40;;;21.23;;
1414;SDS011;702;49.466;11.086;2024-03-22T03:15:59;30.60;;;20.50;;
1414;SDS011;702;49.466;11.086;2024-03-22T03:18:26;32.03;;;21.33;;
1414;SDS011;702;49.466;11.086;2024-03-22T03:20:53;30.67;;;20.23;;
1414;SDS011;702;49.466;11.086;2024-03-22T03:23:20;32.97;;;20.47;;
1414;SDS011;702;49.466;11.086;2024-03-22T03:25:46;30.87;;;20.37;;
1414;SDS011;702;49.466;11.086;2024-03-22T03:28:13;29.47;;;21.10;;
1414;SDS011;702;49.466;11.086;2024-03-22T03:30:40;32.63;;;20.40;;
1414;SDS011;702;49.466;11.086;2024-03-22T03:33:08;30.37;;;19.57;;
1414;SDS011;702;49.466;11.086;2024-03-22T03:35:35;28.27;;;20.03;;
1414;SDS011;702;49.466;11.086;2024-03-22T03:38:02;30.40;;;20.00;;
1414;SDS011;702;49.466;11.086;2024-03-22T03:40:29;30.90;;;19.67;;
1414;SDS011;702;49.466;11.086;2024-03-22T03:42:56;35.20;;;19.43;;
1414;SDS011;702;49.466;11.086;2024-03-22T03:45:22;27.37;;;18.70;;
1414;SDS011;702;49.466;11.086;2024-03-22T03:47:50;32.50;;;19.60;;
1414;SDS011;702;49.466;11.086;2024-03-22T03:50:17;31.80;;;20.33;;
1414;SDS011;702;49.466;11.086;2024-03-22T03:52:45;31.07;;;20.67;;
1414;SDS011;702;49.466;11.086;2024-03-22T03:55:11;33.00;;;21.00;;
1414;SDS011;702;49.466;11.086;2024-03-22T03:57:38;34.43;;;21.07;;
1414;SDS011;702;49.466;11.086;2024-03-22T04:00:06;38.10;;;21.03;;
1414;SDS011;702;49.466;11.086;2024-03-22T04:02:34;27.77;;;19.23;;
1414;SDS011;702;49.466;11.086;2024-03-22T04:05:00;32.33;;;20.20;;
1414;SDS011;702;49.466;11.086;2024-03-22T04:07:29;31.03;;;20.53;;
1414;SDS011;702;49.466;11.086;2024-03-22T04:09:55;31.00;;;21.03;;
1414;SDS011;702;49.466;11.086;2024-03-22T04:12:25;31.17;;;20.13;;
1414;SDS011;702;49.466;11.086;2024-03-22T04:14:52;27.10;;;19.70;;
1414;SDS011;702;49.466;11.086;2024-03-22T04:17:19;30.07;;;20.47;;
1414;SDS011;702;49.466;11.086;2024-03-22T04:19:46;30.57;;;20.50;;
1414;SDS011;702;49.466;11.086;2024-03-22T04:22:15;33.90;;;20.63;;
1414;SDS011;702;49.466;11.086;2024-03-22T04:24:43;26.33;;;19.97;;
1414;SDS011;702;49.466;11.086;2024-03-22T04:27:10;32.07;;;21.30;;
1414;SDS011;702;49.466;11.086;2024-03-22T04:29:37;34.40;;;22.07;;
1414;SDS011;702;49.466;11.086;2024-03-22T04:32:04;30.33;;;20.57;;
1414;SDS011;702;49.466;11.086;2024-03-22T04:34:30;32.33;;;21.00;;
1414;SDS011;702;49.466;11.086;2024-03-22T04:36:58;36.60;;;23.37;;
1414;SDS011;702;49.466;11.086;2024-03-22T04:39:25;32.90;;;21.80;;
1414;SDS011;702;49.466;11.086;2024-03-22T04:41:54;34.60;;;20.80;;
1414;SDS011;702;49.466;11.086;2024-03-22T04:44:21;34.10;;;21.83;;
1414;SDS011;702;49.466;11.086;2024-03-22T04:46:51;27.13;;;19.23;;
1414;SDS011;702;49.466;11.086;2024-03-22T04:49:17;32.23;;;20.63;;
1414;SDS011;702;49.466;11.086;2024-03-22T04:51:45;29.50;;;19.87;;
1414;SDS011;702;49.466;11.086;2024-03-22T04:54:11;28.87;;;17.77;;
1414;SDS011;702;49.466;11.086;2024-03-22T04:56:38;28.90;;;19.37;;
1414;SDS011;702;49.466;11.086;2024-03-22T04:59:06;26.40;;;17.80;;
1414;SDS011;702;49.466;11.086;2024-03-22T05:01:33;29.80;;;19.17;;
1414;SDS011;702;49.466;11.086;2024-03-22T05:04:00;32.27;;;20.30;;
1414;SDS011;702;49.466;11.086;2024-03-22T05:06:27;28.90;;;19.50;;
1414;SDS011;702;49.466;11.086;2024-03-22T05:08:53;26.07;;;18.07;;
1414;SDS011;702;49.466;11.086;2024-03-22T05:11:21;29.87;;;19.10;;
1414;SDS011;702;49.466;11.086;2024-03-22T05:13:47;30.70;;;19.37;;
1414;SDS011;702;49.466;11.086;2024-03-22T05:16:16;31.03;;;18.60;;
1414;SDS011;702;49.466;11.086;2024-03-22T05:18:42;27.80;;;19.47;;
1414;SDS011;702;49.466;11.086;2024-03-22T05:21:10;32.97;;;20.07;;
1414;SDS011;702;49.466;11.086;2024-03-22T05:23:36;35.03;;;21.57;;
1414;SDS011;702;49.466;11.086;2024-03-22T05:26:04;35.13;;;21.27;;
1414;SDS011;702;49.466;11.086;2024-03-22T05:28:31;34.43;;;20.73;;
1414;SDS011;702;49.466;11.086;2024-03-22T05:30:58;31.90;;;20.67;;
1414;SDS011;702;49.466;11.086;2024-03-22T05:33:26;34.07;;;21.20;;
1414;SDS011;702;49.466;11.086;2024-03-22T05:35:54;28.53;;;18.93;;
1414;SDS011;702;49.466;11.086;2024-03-22T05:38:20;33.50;;;21.20;;
1414;SDS011;702;49.466;11.086;2024-03-22T05:40:47;36.63;;;20.37;;
1414;SDS011;702;49.466;11.086;2024-03-22T05:43:14;32.00;;;20.80;;
1414;SDS011;702;49.466;11.086;2024-03-22T05:45:42;39.80;;;22.30;;
1414;SDS011;702;49.466;11.086;2024-03-22T05:48:09;31.87;;;21.57;;
1414;SDS011;702;49.466;11.086;2024-03-22T05:50:37;32.80;;;20.00;;
1414;SDS011;702;49.466;11.086;2024-03-22T05:53:04;25.20;;;18.63;;
1414;SDS011;702;49.466;11.086;2024-03-22T05:55:31;29.33;;;19.00;;
1414;SDS011;702;49.466;11.086;2024-03-22T05:57:58;31.03;;;19.50;;
1414;SDS011;702;49.466;11.086;2024-03-22T06:00:25;31.93;;;19.97;;
1414;SDS011;702;49.466;11.086;2024-03-22T06:02:52;31.70;;;20.30;;
1414;SDS011;702;49.466;11.086;2024-03-22T06:05:18;29.10;;;18.27;;
1414;SDS011;702;49.466;11.086;2024-03-22T06:07:47;31.63;;;20.37;;
1414;SDS011;702;49.466;11.086;2024-03-22T06:10:14;30.53;;;21.43;;
1414;SDS011;702;49.466;11.086;2024-03-22T06:12:42;31.87;;;19.70;;
1414;SDS011;702;49.466;11.086;2024-03-22T06:15:12;28.10;;;19.50;;
1414;SDS011;702;49.466;11.086;2024-03-22T06:17:40;31.27;;;20.30;;
1414;SDS011;702;49.466;11.086;2024-03-22T06:20:08;27.97;;;18.57;;
1414;SDS011;702;49.466;11.086;2024-03-22T06:22:37;32.57;;;19.20;;
1414;SDS011;702;49.466;11.086;2024-03-22T06:25:05;28.13;;;20.30;;
1414;SDS011;702;49.466;11.086;2024-03-22T06:27:33;31.97;;;19.97;;
1414;SDS011;702;49.466;11.086;2024-03-22T06:29:59;31.40;;;21.43;;
1414;SDS011;702;49.466;11.086;2024-03-22T06:32:27;27.57;;;19.27;;
1414;SDS011;702;49.466;11.086;2024-03-22T06:34:53;26.33;;;17.60;;
1414;SDS011;702;49.466;11.086;2024-03-22T06:37:21;25.87;;;18.07;;
1414;SDS011;702;49.466;11.086;2024-03-22T06:39:47;24.03;;;18.13;;
1414;SDS011;702;49.466;11.086;2024-03-22T06:42:16;27.03;;;18.87;;
1414;SDS011;702;49.466;11.086;2024-03-22T06:44:42;24.60;;;17.53;;
1414;SDS011;702;49.466;11.086;2024-03-22T06:47:09;21.63;;;16.77;;
1414;SDS011;702;49.466;11.086;2024-03-22T06:49:36;26.13;;;17.63;;
1414;SDS011;702;49.466;11.086;2024-03-22T06:52:04;22.57;;;18.53;;
1414;SDS011;702;49.466;11.086;2024-03-22T06:54:30;23.83;;;16.90;;
1414;SDS011;702;49.466;11.086;2024-03-22T06:56:57;22.13;;;15.67;;
1414;SDS011;702;49.466;11.086;2024-03-22T06:59:25;25.20;;;16.03;;
1414;SDS011;702;49.466;11.086;2024-03-22T07:01:54;24.23;;;16.80;;
1414;SDS011;702;49.466;11.086;2024-03-22T07:04:20;22.70;;;15.47;;
1414;SDS011;702;49.466;11.086;2024-03-22T07:06:48;25.23;;;17.20;;
1414;SDS011;702;49.466;11.086;2024-03-22T07:09:14;23.67;;;17.50;;
1414;SDS011;702;49.466;11.086;2024-03-22T07:11:42;22.37;;;17.57;;
1414;SDS011;702;49.466;11.086;2024-03-22T07:14:09;22.00;;;16.43;;
1414;SDS011;702;49.466;11.086;2024-03-22T07:16:39;21.20;;;16.70;;
1414;SDS011;702;49.466;11.086;2024-03-22T07:19:05;26.07;;;16.73;;
1414;SDS011;702;49.466;11.086;2024-03-22T07:21:32;20.30;;;17.00;;
1414;SDS011;702;49.466;11.086;2024-03-22T07:23:59;26.30;;;17.73;;
1414;SDS011;702;49.466;11.086;2024-03-22T07:26:26;25.13;;;16.50;;
1414;SDS011;702;49.466;11.086;2024-03-22T07:28:55;29.43;;;17.03;;
1414;SDS011;702;49.466;11.086;2024-03-22T07:31:23;22.47;;;15.50;;
1414;SDS011;702;49.466;11.086;2024-03-22T07:33:53;24.07;;;16.10;;
1414;SDS011;702;49.466;11.086;2024-03-22T07:36:21;22.23;;;16.47;;
1414;SDS011;702;49.466;11.086;2024-03-22T07:38:47;22.13;;;15.70;;
1414;SDS011;702;49.466;11.086;2024-03-22T07:41:16;21.60;;;14.60;;
1414;SDS011;702;49.466;11.086;2024-03-22T07:43:42;18.87;;;15.90;;
1414;SDS011;702;49.466;11.086;2024-03-22T07:46:11;24.63;;;16.20;;
1414;SDS011;702;49.466;11.086;2024-03-22T07:48:37;21.53;;;16.60;;
1414;SDS011;702;49.466;11.086;2024-03-22T07:51:06;22.30;;;16.80;;
1414;SDS011;702;49.466;11.086;2024-03-22T07:53:33;20.10;;;15.60;;
1414;SDS011;702;49.466;11.086;2024-03-22T07:56:00;20.97;;;15.47;;
1414;SDS011;702;49.466;11.086;2024-03-22T07:58:27;21.30;;;16.90;;
1414;SDS011;702;49.466;11.086;2024-03-22T08:00:55;19.47;;;14.97;;
1414;SDS011;702;49.466;11.086;2024-03-22T08:03:21;26.20;;;17.70;;
1414;SDS011;702;49.466;11.086;2024-03-22T08:05:49;20.47;;;15.77;;
1414;SDS011;702;49.466;11.086;2024-03-22T08:08:16;21.60;;;16.50;;
1414;SDS011;702;49.466;11.086;2024-03-22T08:10:44;23.00;;;17.33;;
1414;SDS011;702;49.466;11.086;2024-03-22T08:13:11;22.07;;;16.23;;
1414;SDS011;702;49.466;11.086;2024-03-22T08:15:38;18.73;;;15.00;;
1414;SDS011;702;49.466;11.086;2024-03-22T08:18:04;21.10;;;15.07;;
1414;SDS011;702;49.466;11.086;2024-03-22T08:20:34;19.90;;;16.40;;
1414;SDS011;702;49.466;11.086;2024-03-22T08:23:04;22.43;;;16.23;;
1414;SDS011;702;49.466;11.086;2024-03-22T08:25:33;21.63;;;15.43;;
1414;SDS011;702;49.466;11.086;2024-03-22T08:28:00;19.57;;;16.30;;
1414;SDS011;702;49.466;11.086;2024-03-22T08:30:27;22.37;;;15.90;;
1414;SDS011;702;49.466;11.086;2024-03-22T08:32:53;21.77;;;16.90;;
1414;SDS011;702;49.466;11.086;2024-03-22T08:35:21;19.30;;;15.20;;
1414;SDS011;702;49.466;11.086;2024-03-22T08:37:47;21.40;;;15.50;;
1414;SDS011;702;49.466;11.086;2024-03-22T08:40:15;20.50;;;16.40;;
1414;SDS011;702;49.466;11.086;2024-03-22T08:42:44;21.83;;;15.77;;
1414;SDS011;702;49.466;11.086;2024-03-22T08:45:11;22.53;;;17.03;;
1414;SDS011;702;49.466;11.086;2024-03-22T08:47:39;21.83;;;16.67;;
1414;SDS011;702;49.466;11.086;2024-03-22T08:50:08;17.50;;;15.57;;
1414;SDS011;702;49.466;11.086;2024-03-22T08:52:37;17.53;;;15.70;;
1414;SDS011;702;49.466;11.086;2024-03-22T08:55:04;20.50;;;15.97;;
1414;SDS011;702;49.466;11.086;2024-03-22T08:57:36;18.37;;;16.20;;
1414;SDS011;702;49.466;11.086;2024-03-22T09:00:05;19.77;;;15.63;;
1414;SDS011;702;49.466;11.086;2024-03-22T09:02:34;17.70;;;15.50;;
1414;SDS011;702;49.466;11.086;2024-03-22T09:05:01;18.47;;;15.47;;
1414;SDS011;702;49.466;11.086;2024-03-22T09:07:28;20.83;;;16.70;;
1414;SDS011;702;49.466;11.086;2024-03-22T09:09:54;18.97;;;15.07;;
1414;SDS011;702;49.466;11.086;2024-03-22T09:12:22;18.40;;;14.47;;
1414;SDS011;702;49.466;11.086;2024-03-22T09:14:48;18.67;;;13.37;;
1414;SDS011;702;49.466;11.086;2024-03-22T09:17:17;18.70;;;14.73;;
1414;SDS011;702;49.466;11.086;2024-03-22T09:19:43;19.17;;;14.80;;
1414;SDS011;702;49.466;11.086;2024-03-22T09:22:11;19.50;;;15.60;;
1414;SDS011;702;49.466;11.086;2024-03-22T09:24:37;16.67;;;14.00;;
1414;SDS011;702;49.466;11.086;2024-03-22T09:27:05;16.23;;;13.27;;
1414;SDS011;702;49.466;11.086;2024-03-22T09:29:33;18.07;;;15.00;;
1414;SDS011;702;49.466;11.086;2024-03-22T09:32:01;18.87;;;15.07;;
1414;SDS011;702;49.466;11.086;2024-03-22T09:34:29;17.37;;;15.37;;
1414;SDS011;702;49.466;11.086;2024-03-22T09:36:57;16.73;;;13.70;;
1414;SDS011;702;49.466;11.086;2024-03-22T09:39:23;17.00;;;14.20;;
1414;SDS011;702;49.466;11.086;2024-03-22T09:41:52;16.50;;;13.90;;
1414;SDS011;702;49.466;11.086;2024-03-22T09:44:23;16.63;;;14.57;;
1414;SDS011;702;49.466;11.086;2024-03-22T09:46:50;16.40;;;14.47;;
1414;SDS011;702;49.466;11.086;2024-03-22T09:49:17;16.80;;;13.90;;
1414;SDS011;702;49.466;11.086;2024-03-22T09:51:50;20.23;;;14.77;;
1414;SDS011;702;49.466;11.086;2024-03-22T09:54:18;17.83;;;13.03;;
1414;SDS011;702;49.466;11.086;2024-03-22T09:56:46;16.87;;;14.83;;
1414;SDS011;702;49.466;11.086;2024-03-22T09:59:15;19.37;;;15.07;;
1414;SDS011;702;49.466;11.086;2024-03-22T10:01:45;17.37;;;14.40;;
1414;SDS011;702;49.466;11.086;2024-03-22T10:04:12;18.30;;;14.90;;
1414;SDS011;702;49.466;11.086;2024-03-22T10:06:39;16.77;;;14.47;;
1414;SDS011;702;49.466;11.086;2024-03-22T10:09:07;15.30;;;13.30;;
1414;SDS011;702;49.466;11.086;2024-03-22T10:11:36;15.50;;;13.60;;
1414;SDS011;702;49.466;11.086;2024-03-22T10:14:02;16.90;;;13.90;;
1414;SDS011;702;49.466;11.086;2024-03-22T10:16:32;16.37;;;12.93;;
1414;SDS011;702;49.466;11.086;2024-03-22T10:19:00;15.57;;;13.70;;
1414;SDS011;702;49.466;11.086;2024-03-22T10:21:27;15.77;;;13.17;;
1414;SDS011;702;49.466;11.086;2024-03-22T10:23:54;15.30;;;12.83;;
1414;SDS011;702;49.466;11.086;2024-03-22T10:26:23;13.47;;;12.07;;
1414;SDS011;702;49.466;11.086;2024-03-22T10:28:51;13.67;;;12.27;;
1414;SDS011;702;49.466;11.086;2024-03-22T10:31:18;14.70;;;13.20;;
1414;SDS011;702;49.466;11.086;2024-03-22T10:33:46;16.00;;;13.97;;
1414;SDS011;702;49.466;11.086;2024-03-22T10:36:14;18.20;;;13.27;;
1414;SDS011;702;49.466;11.086;2024-03-22T10:38:43;14.23;;;12.80;;
1414;SDS011;702;49.466;11.086;2024-03-22T10:41:12;16.60;;;13.60;;
1414;SDS011;702;49.466;11.086;2024-03-22T10:43:39;15.43;;;13.83;;
1414;SDS011;702;49.466;11.086;2024-03-22T10:46:06;16.17;;;13.10;;
1414;SDS011;702;49.466;11.086;2024-03-22T10:48:35;15.10;;;13.13;;
1414;SDS011;702;49.466;11.086;2024-03-22T10:51:04;13.67;;;11.93;;
1414;SDS011;702;49.466;11.086;2024-03-22T10:53:31;14.00;;;11.07;;
1414;SDS011;702;49.466;11.086;2024-03-22T10:55:59;11.40;;;8.70;;
1414;SDS011;702;49.466;11.086;2024-03-22T10:58:27;10.73;;;8.10;;
1414;SDS011;702;49.466;11.086;2024-03-22T11:00:56;14.27;;;9.40;;
1414;SDS011;702;49.466;11.086;2024-03-22T11:03:24;11.87;;;9.40;;
1414;SDS011;702;49.466;11.086;2024-03-22T11:05:54;10.97;;;9.20;;
1414;SDS011;702;49.466;11.086;2024-03-22T11:08:25;8.80;;;7.87;;
1414;SDS011;702;49.466;11.086;2024-03-22T11:10:54;11.40;;;8.67;;
1414;SDS011;702;49.466;11.086;2024-03-22T11:13:22;11.73;;;8.83;;
1414;SDS011;702;49.466;11.086;2024-03-22T11:15:50;9.30;;;7.73;;
1414;SDS011;702;49.466;11.086;2024-03-22T11:18:18;8.10;;;6.03;;
1414;SDS011;702;49.466;11.086;2024-03-22T11:20:45;6.70;;;5.10;;
1414;SDS011;702;49.466;11.086;2024-03-22T11:23:12;6.13;;;5.50;;
1414;SDS011;702;49.466;11.086;2024-03-22T11:25:39;6.60;;;5.77;;
1414;SDS011;702;49.466;11.086;2024-03-22T11:28:06;8.13;;;6.27;;
1414;SDS011;702;49.466;11.086;2024-03-22T11:30:33;7.90;;;6.80;;
1414;SDS011;702;49.466;11.086;2024-03-22T11:33:00;7.23;;;6.07;;
1414;SDS011;702;49.466;11.086;2024-03-22T11:35:30;8.13;;;6.27;;
1414;SDS011;702;49.466;11.086;2024-03-22T11:37:57;7.93;;;6.30;;
1414;SDS011;702;49.466;11.086;2024-03-22T11:40:25;8.23;;;6.17;;
1414;SDS011;702;49.466;11.086;2024-03-22T11:42:52;6.90;;;6.20;;
1414;SDS011;702;49.466;11.086;2024-03-22T11:45:21;6.80;;;6.20;;
1414;SDS011;702;49.466;11.086;2024-03-22T11:47:50;6.83;;;6.17;;
1414;SDS011;702;49.466;11.086;2024-03-22T11:50:17;7.40;;;6.33;;
1414;SDS011;702;49.466;11.086;2024-03-22T11:52:46;7.23;;;6.53;;
1414;SDS011;702;49.466;11.086;2024-03-22T11:55:14;8.07;;;7.37;;
1414;SDS011;702;49.466;11.086;2024-03-22T11:57:40;7.47;;;6.70;;
1414;SDS011;702;49.466;11.086;2024-03-22T12:00:08;6.70;;;6.00;;
1414;SDS011;702;49.466;11.086;2024-03-22T12:02:38;7.53;;;5.67;;
1414;SDS011;702;49.466;11.086;2024-03-22T12:05:05;7.50;;;6.03;;
1414;SDS011;702;49.466;11.086;2024-03-22T12:07:33;6.43;;;5.80;;
1414;SDS011;702;49.466;11.086;2024-03-22T12:10:03;8.20;;;6.20;;
1414;SDS011;702;49.466;11.086;2024-03-22T12:12:29;7.50;;;6.77;;
1414;SDS011;702;49.466;11.086;2024-03-22T12:14:57;7.80;;;7.00;;
1414;SDS011;702;49.466;11.086;2024-03-22T12:17:27;8.20;;;7.27;;
1414;SDS011;702;49.466;11.086;2024-03-22T12:19:57;10.03;;;7.00;;
1414;SDS011;702;49.466;11.086;2024-03-22T12:22:23;8.73;;;7.93;;
1414;SDS011;702;49.466;11.086;2024-03-22T12:24:53;8.60;;;7.80;;
1414;SDS011;702;49.466;11.086;2024-03-22T12:27:23;8.03;;;7.23;;
1414;SDS011;702;49.466;11.086;2024-03-22T12:29:51;9.23;;;8.13;;
1414;SDS011;702;49.466;11.086;2024-03-22T12:32:18;9.27;;;8.30;;
1414;SDS011;702;49.466;11.086;2024-03-22T12:34:47;9.30;;;8.50;;
1414;SDS011;702;49.466;11.086;2024-03-22T12:37:14;11.67;;;8.23;;
1414;SDS011;702;49.466;11.086;2024-03-22T12:39:42;9.17;;;8.27;;
1414;SDS011;702;49.466;11.086;2024-03-22T12:42:10;9.20;;;8.30;;
1414;SDS011;702;49.466;11.086;2024-03-22T12:44:44;9.60;;;8.60;;
1414;SDS011;702;49.466;11.086;2024-03-22T12:47:11;7.80;;;7.00;;
1414;SDS011;702;49.466;11.086;2024-03-22T12:49:39;7.73;;;6.93;;
1414;SDS011;702;49.466;11.086;2024-03-22T12:52:06;7.80;;;6.10;;
1414;SDS011;702;49.466;11.086;2024-03-22T12:54:33;7.30;;;6.60;;
1414;SDS011;702;49.466;11.086;2024-03-22T12:57:00;8.67;;;7.80;;
1414;SDS011;702;49.466;11.086;2024-03-22T12:59:28;7.47;;;6.77;;
1414;SDS011;702;49.466;11.086;2024-03-22T13:01:57;7.57;;;6.87;;
1414;SDS011;702;49.466;11.086;2024-03-22T13:04:32;8.37;;;5.90;;
1414;SDS011;702;49.466;11.086;2024-03-22T13:07:02;7.60;;;6.83;;
1414;SDS011;702;49.466;11.086;2024-03-22T13:09:31;6.83;;;6.10;;
1414;SDS011;702;49.466;11.086;2024-03-22T13:11:59;5.60;;;5.10;;
1414;SDS011;702;49.466;11.086;2024-03-22T13:14:27;5.67;;;4.53;;
1414;SDS011;702;49.466;11.086;2024-03-22T13:16:54;5.83;;;4.93;;
1414;SDS011;702;49.466;11.086;2024-03-22T13:19:23;5.80;;;5.13;;
1414;SDS011;702;49.466;11.086;2024-03-22T13:21:49;6.27;;;5.33;;
1414;SDS011;702;49.466;11.086;2024-03-22T13:24:16;6.77;;;6.13;;
1414;SDS011;702;49.466;11.086;2024-03-22T13:26:44;7.53;;;6.83;;
1414;SDS011;702;49.466;11.086;2024-03-22T13:29:14;6.90;;;6.30;;
1414;SDS011;702;49.466;11.086;2024-03-22T13:31:40;7.70;;;7.00;;
1414;SDS011;702;49.466;11.086;2024-03-22T13:34:09;7.63;;;6.90;;
1414;SDS011;702;49.466;11.086;2024-03-22T13:36:38;10.23;;;6.17;;
1414;SDS011;702;49.466;11.086;2024-03-22T13:39:06;9.23;;;6.57;;
1414;SDS011;702;49.466;11.086;2024-03-22T13:41:37;6.30;;;5.67;;
1414;SDS011;702;49.466;11.086;2024-03-22T13:44:04;6.13;;;5.50;;
1414;SDS011;702;49.466;11.086;2024-03-22T13:46:33;6.30;;;5.67;;
1414;SDS011;702;49.466;11.086;2024-03-22T13:49:03;6.23;;;5.63;;
1414;SDS011;702;49.466;11.086;2024-03-22T13:51:34;6.57;;;5.97;;
1414;SDS011;702;49.466;11.086;2024-03-22T13:54:02;6.30;;;5.70;;
1414;SDS011;702;49.466;11.086;2024-03-22T13:56:30;6.73;;;4.80;;
1414;SDS011;702;49.466;11.086;2024-03-22T13:58:57;5.20;;;4.70;;
1414;SDS011;702;49.466;11.086;2024-03-22T14:01:23;4.87;;;4.30;;
1414;SDS011;702;49.466;11.086;2024-03-22T14:03:51;5.20;;;4.30;;
1414;SDS011;702;49.466;11.086;2024-03-22T14:06:17;4.80;;;4.40;;
1414;SDS011;702;49.466;11.086;2024-03-22T14:08:47;5.33;;;4.87;;
1414;SDS011;702;49.466;11.086;2024-03-22T14:11:13;5.30;;;4.90;;
1414;SDS011;702;49.466;11.086;2024-03-22T14:13:42;6.03;;;5.50;;
1414;SDS011;702;49.466;11.086;2024-03-22T14:16:08;5.27;;;4.80;;
1414;SDS011;702;49.466;11.086;2024-03-22T14:18:37;5.37;;;4.47;;
1414;SDS011;702;49.466;11.086;2024-03-22T14:21:04;6.93;;;5.00;;
1414;SDS011;702;49.466;11.086;2024-03-22T14:23:33;5.07;;;4.67;;
1414;SDS011;702;49.466;11.086;2024-03-22T14:26:01;5.40;;;4.90;;
1414;SDS011;702;49.466;11.086;2024-03-22T14:28:30;5.47;;;5.07;;
1414;SDS011;702;49.466;11.086;2024-03-22T14:30:58;5.00;;;4.50;;
1414;SDS011;702;49.466;11.086;2024-03-22T14:33:26;4.70;;;4.20;;
1414;SDS011;702;49.466;11.086;2024-03-22T14:35:55;4.90;;;4.50;;
1414;SDS011;702;49.466;11.086;2024-03-22T14:38:22;4.27;;;3.87;;
1414;SDS011;702;49.466;11.086;2024-03-22T14:40:49;5.50;;;4.50;;
1414;SDS011;702;49.466;11.086;2024-03-22T14:43:19;4.97;;;4.57;;
1414;SDS011;702;49.466;11.086;2024-03-22T14:45:45;4.70;;;4.20;;
1414;SDS011;702;49.466;11.086;2024-03-22T14:48:13;4.70;;;4.30;;
1414;SDS011;702;49.466;11.086;2024-03-22T14:50:40;4.20;;;3.80;;
1414;SDS011;702;49.466;11.086;2024-03-22T14:53:07;4.47;;;3.63;;
1414;SDS011;702;49.466;11.086;2024-03-22T14:55:33;4.90;;;3.93;;
1414;SDS011;702;49.466;11.086;2024-03-22T14:58:02;4.97;;;3.80;;